createdAt,value
2023-05-11T09:09:09.167Z,10.85
2023-05-11T09:11:36.157Z,10.10
2023-05-11T09:14:03.356Z,12.48
2023-05-11T09:16:36.635Z,11.00
2023-05-11T09:19:05.354Z,9.35
2023-05-11T09:21:32.537Z,11.82
2023-05-11T09:24:00.631Z,8.63
2023-05-11T09:26:31.810Z,10.80
2023-05-11T09:31:43.890Z,11.45
2023-05-11T09:34:15.195Z,9.10
2023-05-11T09:36:50.008Z,11.10
2023-05-11T09:41:50.315Z,9.88
2023-05-11T09:44:18.301Z,8.27
2023-05-11T09:46:45.899Z,6.78
2023-05-11T09:49:12.731Z,7.97
2023-05-11T09:51:41.092Z,7.70
2023-05-11T09:54:21.668Z,10.15
2023-05-11T09:56:54.355Z,8.68
2023-05-11T09:59:38.405Z,8.88
2023-05-11T10:02:24.818Z,10.43
2023-05-11T10:04:57.624Z,7.30
2023-05-11T10:07:32.716Z,8.45
2023-05-11T10:10:22.791Z,8.65
2023-05-11T10:12:50.248Z,6.97
2023-05-11T10:15:21.269Z,7.20
2023-05-11T10:17:49.069Z,7.95
2023-05-11T10:20:16.060Z,6.28
2023-05-11T10:22:43.093Z,7.28
2023-05-11T10:25:10.279Z,8.35
2023-05-11T10:27:37.891Z,7.50
2023-05-11T10:30:06.820Z,8.52
2023-05-11T10:32:37.973Z,7.25
2023-05-11T10:35:06.497Z,6.85
2023-05-11T10:37:33.748Z,7.20
2023-05-11T10:40:00.525Z,8.48
2023-05-11T10:42:52.559Z,7.22
2023-05-11T10:45:25.353Z,5.45
2023-05-11T10:48:00.512Z,8.18
2023-05-11T10:50:36.519Z,7.85
2023-05-11T10:53:15.022Z,6.72
2023-05-11T10:58:10.472Z,4.63
2023-05-11T11:00:43.906Z,6.50
2023-05-11T11:03:15.204Z,6.78
2023-05-11T11:05:43.986Z,5.75
2023-05-11T11:08:11.272Z,5.85
2023-05-11T11:10:39.872Z,5.95
2023-05-11T11:13:08.883Z,6.05
2023-05-11T11:15:54.301Z,7.40
2023-05-11T11:18:34.789Z,5.18
2023-05-11T11:21:02.127Z,6.15
2023-05-11T11:23:41.802Z,6.13
2023-05-11T11:26:15.334Z,6.40
2023-05-11T11:28:54.274Z,5.97
2023-05-11T11:31:29.662Z,6.88
2023-05-11T11:33:59.194Z,5.45
2023-05-11T11:36:55.736Z,6.93
2023-05-11T11:39:25.621Z,5.97
2023-05-11T11:42:07.240Z,11.95
2023-05-11T11:44:35.004Z,6.15
2023-05-11T11:47:20.721Z,6.03
2023-05-11T11:49:49.721Z,5.53
2023-05-11T11:52:28.911Z,6.65
2023-05-11T11:54:57.046Z,5.93
2023-05-11T11:57:35.909Z,7.07
2023-05-11T12:00:32.298Z,6.88
2023-05-11T12:03:12.418Z,5.93
2023-05-11T12:05:49.536Z,6.18
2023-05-11T12:08:35.819Z,6.70
2023-05-11T12:11:05.312Z,6.72
2023-05-11T12:13:43.783Z,7.85
2023-05-11T12:18:42.463Z,9.85
2023-05-11T12:21:22.259Z,7.30
2023-05-11T12:23:56.492Z,6.40
2023-05-11T12:26:24.524Z,7.65
2023-05-11T12:28:52.021Z,7.25
2023-05-11T12:31:19.324Z,6.47
2023-05-11T12:33:50.483Z,6.18
2023-05-11T12:36:18.312Z,6.80
2023-05-11T12:38:49.088Z,5.65
2023-05-11T12:41:23.129Z,9.60
2023-05-11T12:43:54.256Z,8.40
2023-05-11T12:46:22.151Z,9.73
2023-05-11T12:48:50.616Z,8.85
2023-05-11T12:51:45.095Z,8.77
2023-05-11T12:54:11.979Z,9.95
2023-05-11T12:56:49.006Z,9.45
2023-05-11T12:59:37.504Z,8.80
2023-05-11T13:02:23.833Z,8.10
2023-05-11T13:04:50.624Z,8.20
2023-05-11T13:07:28.319Z,6.90
2023-05-11T13:10:00.565Z,6.80
2023-05-11T13:12:30.222Z,8.10
2023-05-11T13:15:12.952Z,8.27
2023-05-11T13:17:42.223Z,7.45
2023-05-11T13:20:24.467Z,10.70
2023-05-11T13:22:51.501Z,9.90
2023-05-11T13:25:21.878Z,7.18
2023-05-11T13:27:49.028Z,7.10
2023-05-11T13:30:15.847Z,8.02
2023-05-11T13:32:42.649Z,9.70
2023-05-11T13:35:09.864Z,9.68
2023-05-11T13:37:36.731Z,9.57
2023-05-11T13:40:03.973Z,8.65
2023-05-11T13:42:30.793Z,8.30
2023-05-11T13:44:57.517Z,10.55
2023-05-11T13:47:24.606Z,10.10
2023-05-11T13:49:51.373Z,10.20
2023-05-11T13:52:18.133Z,10.27
2023-05-11T13:54:44.823Z,11.82
2023-05-11T13:57:11.553Z,9.50
2023-05-11T13:59:38.325Z,12.43
2023-05-11T14:02:05.202Z,10.07
2023-05-11T14:04:31.943Z,11.68
2023-05-11T14:06:59.050Z,12.18
2023-05-11T14:09:26.270Z,13.70
2023-05-11T14:11:52.914Z,13.27
2023-05-11T14:14:19.662Z,11.32
2023-05-11T14:16:46.420Z,10.13
2023-05-11T14:19:13.272Z,11.18
2023-05-11T14:21:40.086Z,9.77
2023-05-11T14:24:12.240Z,10.30
2023-05-11T14:26:40.243Z,12.10
2023-05-11T14:29:07.092Z,9.93
2023-05-11T14:31:35.381Z,7.20
2023-05-11T14:34:03.667Z,7.85
2023-05-11T14:36:31.628Z,7.10
2023-05-11T14:38:58.429Z,7.25
2023-05-11T14:41:25.602Z,6.32
2023-05-11T14:43:52.397Z,5.97
2023-05-11T14:46:19.547Z,4.65
2023-05-11T14:48:46.397Z,5.25
2023-05-11T14:51:13.175Z,5.65
2023-05-11T14:53:39.956Z,8.77
2023-05-11T14:56:07.314Z,4.85
2023-05-11T14:58:34.102Z,6.13
2023-05-11T15:01:00.866Z,5.88
2023-05-11T15:03:28.178Z,5.55
2023-05-11T15:05:54.963Z,5.72
2023-05-11T15:08:29.620Z,7.82
2023-05-11T15:10:58.024Z,5.32
2023-05-11T15:13:24.900Z,5.35
2023-05-11T15:15:52.183Z,6.30
2023-05-11T15:18:19.176Z,8.13
2023-05-11T15:20:46.712Z,5.65
2023-05-11T15:23:16.878Z,5.95
2023-05-11T15:25:44.708Z,5.25
2023-05-11T15:28:11.854Z,6.85
2023-05-11T15:30:38.720Z,6.43
2023-05-11T15:33:05.751Z,5.90
2023-05-11T15:35:35.668Z,6.40
2023-05-11T15:38:03.536Z,6.30
2023-05-11T15:40:30.666Z,7.15
2023-05-11T15:42:58.821Z,5.35
2023-05-11T15:45:26.195Z,5.20
2023-05-11T15:47:54.067Z,5.63
2023-05-11T15:50:21.411Z,5.13
2023-05-11T15:52:48.472Z,5.25
2023-05-11T15:55:15.276Z,5.40
2023-05-11T15:57:42.019Z,4.13
2023-05-11T16:00:12.818Z,5.40
2023-05-11T16:02:39.745Z,4.85
2023-05-11T16:05:06.874Z,4.28
2023-05-11T16:07:33.628Z,5.63
2023-05-11T16:10:00.506Z,5.50
2023-05-11T16:12:27.265Z,4.82
2023-05-11T16:14:54.059Z,6.72
2023-05-11T16:17:20.911Z,4.70
2023-05-11T16:19:47.738Z,5.03
2023-05-11T16:22:14.685Z,5.65
2023-05-11T16:24:41.588Z,5.82
2023-05-11T16:27:08.412Z,5.07
2023-05-11T16:29:36.665Z,3.55
2023-05-11T16:32:03.696Z,3.90
2023-05-11T16:34:30.450Z,4.10
2023-05-11T16:36:58.913Z,4.63
2023-05-11T16:39:26.888Z,3.63
2023-05-11T16:42:04.706Z,5.38
2023-05-11T16:44:32.116Z,3.75
2023-05-11T16:47:00.090Z,4.90
2023-05-11T16:49:27.621Z,4.82
2023-05-11T16:51:54.482Z,4.82
2023-05-11T16:54:21.207Z,4.65
2023-05-11T17:03:29.749Z,4.25
2023-05-11T17:05:56.721Z,4.60
2023-05-11T17:08:23.649Z,6.20
2023-05-11T17:10:51.169Z,3.70
